Time;durP1;ratioP1;P1;durP2;ratioP2;P2;SDS_P1;SDS_P2;PMS_P1;PMS_P2;Temp;Humidity;BMP_temperature;BMP_pressure;BME280_temperature;BME280_humidity;BME280_pressure;Samples;Min_cycle;Max_cycle;Signal;HPM_P1;HPM_P2
2024/04/13 00:01:09;;;;;;;0.10;0.10;;;;;;;13.20;100.00;102580.63;5525819;25;19994;-50
2024/04/13 00:03:34;;;;;;;0.10;0.10;;;;;;;13.20;100.00;102567.69;5526332;25;20009;-47
2024/04/13 00:05:59;;;;;;;0.10;0.10;;;;;;;13.16;100.00;102572.69;5526583;25;20005;-50
2024/04/13 00:08:25;;;;;;;0.15;0.15;;;;;;;13.13;100.00;102569.97;5525301;25;20069;-50
2024/04/13 00:10:51;;;;;;;0.20;0.20;;;;;;;13.18;100.00;102576.25;5526501;25;19993;-49
2024/04/13 00:13:16;;;;;;;0.20;0.20;;;;;;;13.08;100.00;102570.56;5527002;25;20004;-50
2024/04/13 00:15:42;;;;;;;0.20;0.20;;;;;;;13.13;100.00;102562.22;5525500;25;20019;-50
2024/04/13 00:18:08;;;;;;;0.20;0.20;;;;;;;13.11;100.00;102570.72;5526291;25;20021;-47
2024/04/13 00:20:33;;;;;;;0.20;0.20;;;;;;;13.05;100.00;102567.84;5525827;25;20008;-50
2024/04/13 00:22:59;;;;;;;0.15;0.15;;;;;;;13.04;100.00;102568.66;5526388;25;20008;-48
2024/04/13 00:25:29;;;;;;;0.20;0.20;;;;;;;13.05;100.00;102565.25;5526382;25;20008;-50
2024/04/13 00:27:54;;;;;;;0.20;0.20;;;;;;;13.01;100.00;102564.22;5525334;25;19994;-48
2024/04/13 00:30:19;;;;;;;0.10;0.10;;;;;;;13.05;100.00;102565.25;5526448;25;19993;-47
2024/04/13 00:32:44;;;;;;;0.20;0.20;;;;;;;13.05;100.00;102563.53;5526605;25;19993;-47
2024/04/13 00:35:10;;;;;;;0.20;0.20;;;;;;;13.00;100.00;102559.84;5525256;25;19993;-51
2024/04/13 00:37:35;;;;;;;0.15;0.15;;;;;;;12.96;100.00;102551.06;5526024;25;20009;-50
2024/04/13 00:40:00;;;;;;;0.10;0.10;;;;;;;12.98;100.00;102538.19;5526142;25;20504;-51
2024/04/13 00:42:26;;;;;;;0.10;0.10;;;;;;;12.93;100.00;102544.84;5525038;25;20006;-50
2024/04/13 00:45:01;;;;;;;0.10;0.10;;;;;;;12.92;100.00;102550.84;5526047;25;20321;-48
2024/04/13 00:47:27;;;;;;;0.20;0.20;;;;;;;12.91;100.00;102542.22;5526063;25;19997;-50
2024/04/13 00:49:55;;;;;;;0.20;0.20;;;;;;;12.98;100.00;102544.25;5525136;25;19997;-50
2024/04/13 00:52:23;;;;;;;0.20;0.20;;;;;;;13.00;100.00;102547.81;5525827;25;20005;-47
2024/04/13 00:54:52;;;;;;;0.20;0.20;;;;;;;13.04;100.00;102543.66;5526166;25;20344;-48
2024/04/13 00:57:18;;;;;;;0.15;0.15;;;;;;;13.00;100.00;102545.22;5524822;25;20318;-50
2024/04/13 00:59:45;;;;;;;0.17;0.17;;;;;;;13.02;100.00;102543.56;5525688;25;20057;-47
2024/04/13 01:02:18;;;;;;;0.20;0.20;;;;;;;13.05;100.00;102550.59;5526086;25;19994;-48
2024/04/13 01:04:47;;;;;;;0.20;0.20;;;;;;;13.00;100.00;102547.81;5524546;25;19997;-49
2024/04/13 01:07:16;;;;;;;0.20;0.20;;;;;;;13.03;100.00;102541.88;5526084;25;20004;-46
2024/04/13 01:09:42;;;;;;;0.20;0.20;;;;;;;13.00;100.00;102541.72;5524651;25;20033;-50
2024/04/13 01:12:09;;;;;;;0.20;0.20;;;;;;;13.03;100.00;102531.53;5525444;25;20529;-51
2024/04/13 01:14:35;;;;;;;0.20;0.20;;;;;;;13.00;100.00;102532.28;5525524;25;20073;-50
2024/04/13 01:17:02;;;;;;;0.20;0.20;;;;;;;13.01;100.00;102520.22;5524831;25;20384;-50
2024/04/13 01:19:27;;;;;;;0.10;0.10;;;;;;;13.03;100.00;102521.19;5525568;25;20367;-47
2024/04/13 01:21:52;;;;;;;0.20;0.20;;;;;;;13.02;100.00;102520.28;5525892;25;20004;-50
2024/04/13 01:24:18;;;;;;;0.20;0.20;;;;;;;13.02;100.00;102522.00;5524435;25;20005;-49
2024/04/13 01:26:43;;;;;;;0.20;0.20;;;;;;;13.02;100.00;102515.09;5525235;25;19997;-51
2024/04/13 01:29:09;;;;;;;0.10;0.10;;;;;;;13.01;100.00;102504.69;5525254;25;20009;-48
2024/04/13 01:31:35;;;;;;;0.20;0.20;;;;;;;12.98;100.00;102507.13;5524441;26;19994;-51
2024/04/13 01:34:02;;;;;;;0.20;0.20;;;;;;;13.00;100.00;102506.41;5525397;26;19998;-47
2024/04/13 01:36:41;;;;;;;0.20;0.20;;;;;;;13.00;100.00;102502.91;5525283;26;20279;-50
2024/04/13 01:39:12;;;;;;;0.20;0.20;;;;;;;13.01;100.00;102496.91;5524191;26;20068;-48
2024/04/13 01:41:40;;;;;;;0.20;0.20;;;;;;;12.97;100.00;102501.06;5525228;26;20507;-50
2024/04/13 01:44:06;;;;;;;0.20;0.20;;;;;;;12.98;100.00;102504.56;5524879;26;20025;-50
2024/04/13 01:46:32;;;;;;;0.20;0.20;;;;;;;12.97;100.00;102505.38;5523808;26;20319;-51
2024/04/13 01:48:58;;;;;;;0.20;0.20;;;;;;;12.97;100.00;102498.47;5525039;26;19994;-50
2024/04/13 01:51:24;;;;;;;0.20;0.20;;;;;;;12.96;100.00;102498.41;5524401;26;20005;-49
2024/04/13 01:53:49;;;;;;;0.20;0.20;;;;;;;12.92;100.00;102499.09;5524422;26;20090;-50
2024/04/13 01:56:14;;;;;;;0.20;0.20;;;;;;;12.96;100.00;102498.41;5528599;26;20392;-50
2024/04/13 01:58:40;;;;;;;0.20;0.20;;;;;;;12.94;100.00;102505.22;5528739;26;19993;-50
2024/04/13 02:01:06;;;;;;;0.20;0.20;;;;;;;12.91;100.00;102497.31;5527307;26;20325;-50
2024/04/13 02:03:32;;;;;;;0.17;0.17;;;;;;;12.89;100.00;102497.25;5528070;26;19993;-51
2024/04/13 02:06:03;;;;;;;0.20;0.20;;;;;;;12.89;100.00;102496.38;5527666;26;20356;-47
2024/04/13 02:08:28;;;;;;;0.20;0.20;;;;;;;12.85;100.00;102493.63;5528227;26;19998;-51
2024/04/13 02:10:54;;;;;;;0.20;0.20;;;;;;;12.83;100.00;102492.69;5528299;26;19998;-48
2024/04/13 02:13:20;;;;;;;0.20;0.20;;;;;;;12.83;100.00;102503.03;5527583;26;20009;-50
2024/04/13 02:15:48;;;;;;;0.20;0.20;;;;;;;12.85;100.00;102490.16;5528337;26;19997;-49
2024/04/13 02:18:13;;;;;;;0.10;0.10;;;;;;;12.83;100.00;102490.09;5528018;26;20332;-49
2024/04/13 02:20:40;;;;;;;0.20;0.20;;;;;;;12.84;100.00;102491.84;5527268;26;20004;-51
2024/04/13 02:23:06;;;;;;;0.20;0.20;;;;;;;12.83;100.00;102492.69;5527948;26;19997;-47
2024/04/13 02:25:31;;;;;;;0.20;0.20;;;;;;;12.82;100.00;102497.75;5528019;26;20337;-50
2024/04/13 02:27:56;;;;;;;0.10;0.10;;;;;;;12.81;100.00;102489.13;5527587;26;20001;-50
2024/04/13 02:30:22;;;;;;;0.10;0.10;;;;;;;12.82;100.00;102490.00;5527764;26;19994;-51
2024/04/13 02:32:47;;;;;;;0.10;0.10;;;;;;;12.78;100.00;102493.25;5528342;26;19993;-50
2024/04/13 02:35:13;;;;;;;0.10;0.10;;;;;;;12.77;100.00;102492.38;5526994;26;20344;-48
2024/04/13 02:37:38;;;;;;;0.17;0.17;;;;;;;12.78;100.00;102493.25;5527865;26;20451;-49
2024/04/13 02:40:07;;;;;;;0.20;0.20;;;;;;;12.73;100.00;102485.31;5527878;26;19997;-46
2024/04/13 02:42:34;;;;;;;0.20;0.20;;;;;;;12.73;100.00;102487.88;5526605;26;20068;-50
2024/04/13 02:44:59;;;;;;;0.20;0.20;;;;;;;12.68;100.00;102486.78;5527867;26;20021;-48
2024/04/13 02:47:25;;;;;;;0.20;0.20;;;;;;;12.62;100.00;102483.91;5527338;26;19997;-49
2024/04/13 02:49:50;;;;;;;0.15;0.15;;;;;;;12.56;100.00;102487.06;5526932;26;19997;-50
2024/04/13 02:52:16;;;;;;;0.20;0.20;;;;;;;12.57;100.00;102482.78;5527497;26;19993;-51
2024/04/13 02:54:41;;;;;;;0.20;0.20;;;;;;;12.55;100.00;102487.00;5527510;26;20003;-47
2024/04/13 02:57:06;;;;;;;0.20;0.20;;;;;;;12.52;100.00;102496.41;5526893;26;20315;-47
2024/04/13 02:59:32;;;;;;;0.20;0.20;;;;;;;12.48;100.00;102493.56;5527366;26;20003;-50
2024/04/13 03:01:57;;;;;;;0.20;0.20;;;;;;;12.45;100.00;102489.16;5527770;26;20431;-50
2024/04/13 03:04:22;;;;;;;0.20;0.20;;;;;;;12.42;100.00;102489.00;5526583;26;20899;-51
2024/04/13 03:06:47;;;;;;;0.20;0.20;;;;;;;12.46;100.00;102490.03;5526473;26;19997;-48
2024/04/13 03:09:13;;;;;;;0.20;0.20;;;;;;;12.43;100.00;102487.28;5526846;26;20005;-50
2024/04/13 03:11:38;;;;;;;0.10;0.10;;;;;;;12.48;100.00;102486.69;5527252;26;20428;-47
2024/04/13 03:14:04;;;;;;;0.20;0.20;;;;;;;12.47;100.00;102484.94;5527388;26;20433;-47
2024/04/13 03:16:29;;;;;;;0.20;0.20;;;;;;;12.43;100.00;102483.00;5526383;26;20763;-49
2024/04/13 03:18:54;;;;;;;0.10;0.10;;;;;;;12.41;100.00;102482.06;5527401;26;20041;-50
2024/04/13 03:21:20;;;;;;;0.20;0.20;;;;;;;12.39;100.00;102478.50;5527364;26;20336;-47
2024/04/13 03:23:45;;;;;;;0.13;0.13;;;;;;;12.38;100.00;102481.00;5526991;26;20005;-48
2024/04/13 03:26:10;;;;;;;0.13;0.13;;;;;;;12.39;100.00;102477.63;5527041;26;19994;-47
2024/04/13 03:28:36;;;;;;;0.20;0.20;;;;;;;12.33;100.00;102473.94;5527172;26;20006;-47
2024/04/13 03:31:03;;;;;;;0.20;0.20;;;;;;;12.33;100.00;102480.78;5526577;26;19993;-50
2024/04/13 03:33:28;;;;;;;0.20;0.20;;;;;;;12.28;100.00;102483.16;5527076;26;20522;-50
2024/04/13 03:35:54;;;;;;;0.20;0.20;;;;;;;12.26;100.00;102481.31;5527171;26;20009;-50
2024/04/13 03:38:19;;;;;;;0.20;0.20;;;;;;;12.23;100.00;102486.34;5526380;26;19993;-47
2024/04/13 03:40:46;;;;;;;0.20;0.20;;;;;;;12.22;100.00;102489.75;5527344;26;20005;-51
2024/04/13 03:43:11;;;;;;;0.20;0.20;;;;;;;12.19;100.00;102488.75;5526897;26;20042;-48
2024/04/13 03:45:37;;;;;;;0.20;0.20;;;;;;;12.15;100.00;102489.44;5525840;26;19993;-51
2024/04/13 03:48:03;;;;;;;0.20;0.20;;;;;;;12.14;100.00;102489.34;5526814;26;20065;-47
2024/04/13 03:50:28;;;;;;;0.20;0.20;;;;;;;12.14;100.00;102481.59;5526731;26;20001;-50
2024/04/13 03:52:53;;;;;;;0.20;0.20;;;;;;;12.07;100.00;102482.09;5526346;26;20007;-50
2024/04/13 03:55:19;;;;;;;0.20;0.20;;;;;;;12.09;100.00;102477.91;5526720;26;20337;-47
2024/04/13 03:57:44;;;;;;;0.20;0.20;;;;;;;11.98;100.00;102482.50;5526791;26;20012;-47
2024/04/13 04:00:10;;;;;;;0.20;0.20;;;;;;;11.95;100.00;102477.19;5526144;26;20005;-51
2024/04/13 04:02:35;;;;;;;0.20;0.20;;;;;;;11.92;100.00;102479.63;5526630;26;20067;-49
2024/04/13 04:05:01;;;;;;;0.20;0.20;;;;;;;11.86;100.00;102481.09;5526428;26;19997;-48
2024/04/13 04:07:27;;;;;;;0.20;0.20;;;;;;;11.83;100.00;102480.91;5525320;26;19994;-49
2024/04/13 04:09:52;;;;;;;0.20;0.20;;;;;;;11.79;100.00;102484.16;5526838;26;20004;-49
2024/04/13 04:12:18;;;;;;;0.10;0.10;;;;;;;11.79;100.00;102478.13;5526084;26;20002;-50
2024/04/13 04:14:43;;;;;;;0.20;0.20;;;;;;;11.77;100.00;102480.59;5525736;26;20004;-48
2024/04/13 04:17:08;;;;;;;0.20;0.20;;;;;;;11.77;100.00;102479.72;5525872;26;20449;-50
2024/04/13 04:19:34;;;;;;;0.20;0.20;;;;;;;11.77;100.00;102478.00;5525589;26;19993;-50
2024/04/13 04:21:59;;;;;;;0.20;0.20;;;;;;;11.74;100.00;102475.28;5526656;26;20433;-48
2024/04/13 04:24:25;;;;;;;0.20;0.20;;;;;;;11.73;100.00;102470.91;5525998;26;20005;-47
2024/04/13 04:26:50;;;;;;;0.20;0.20;;;;;;;11.70;100.00;102473.34;5525547;26;19989;-47
2024/04/13 04:29:15;;;;;;;0.20;0.20;;;;;;;11.71;100.00;102475.13;5526331;26;20005;-51
2024/04/13 04:31:41;;;;;;;0.20;0.20;;;;;;;11.67;100.00;102478.34;5525774;26;20004;-48
2024/04/13 04:34:07;;;;;;;0.17;0.17;;;;;;;11.66;100.00;102480.06;5525208;26;20001;-50
2024/04/13 04:36:33;;;;;;;0.20;0.20;;;;;;;11.67;100.00;102483.50;5526257;26;20066;-48
2024/04/13 04:38:58;;;;;;;0.20;0.20;;;;;;;11.66;100.00;102476.59;5526289;26;20065;-50
2024/04/13 04:41:23;;;;;;;0.20;0.20;;;;;;;11.68;100.00;102485.28;5524732;26;19994;-49
2024/04/13 04:43:49;;;;;;;0.20;0.20;;;;;;;11.64;100.00;102475.63;5525992;26;20004;-48
2024/04/13 04:46:15;;;;;;;0.20;0.20;;;;;;;11.61;100.00;102473.75;5525740;26;20001;-49
2024/04/13 04:48:40;;;;;;;0.20;0.20;;;;;;;11.63;100.00;102469.56;5524703;26;20008;-50
2024/04/13 04:51:07;;;;;;;0.20;0.20;;;;;;;11.65;100.00;102474.81;5525861;26;20073;-48
2024/04/13 04:53:32;;;;;;;0.20;0.20;;;;;;;11.60;100.00;102466.81;5525658;26;20005;-49
2024/04/13 04:55:58;;;;;;;0.20;0.20;;;;;;;11.64;100.00;102468.75;5525265;26;20344;-48
2024/04/13 04:58:23;;;;;;;0.20;0.20;;;;;;;11.63;100.00;102469.56;5525440;26;20333;-50
2024/04/13 05:00:49;;;;;;;0.20;0.20;;;;;;;11.63;100.00;102471.25;5526270;26;19993;-50
2024/04/13 05:03:15;;;;;;;0.20;0.20;;;;;;;11.64;100.00;102463.59;5525004;26;20005;-48
2024/04/13 05:05:41;;;;;;;0.20;0.20;;;;;;;11.66;100.00;102468.84;5525258;26;20422;-46
2024/04/13 05:08:07;;;;;;;0.20;0.20;;;;;;;11.68;100.00;102469.78;5525547;26;20009;-50
2024/04/13 05:10:32;;;;;;;0.20;0.20;;;;;;;11.67;100.00;102461.19;5524510;26;20005;-50
2024/04/13 05:12:57;;;;;;;0.20;0.20;;;;;;;11.69;100.00;102459.53;5525770;26;20433;-47
2024/04/13 05:15:23;;;;;;;0.20;0.20;;;;;;;11.70;100.00;102457.84;5525310;26;20005;-49
2024/04/13 05:17:48;;;;;;;0.20;0.20;;;;;;;11.75;100.00;102456.41;5524747;26;20321;-49
2024/04/13 05:20:14;;;;;;;0.20;0.20;;;;;;;11.79;100.00;102460.91;5525656;26;20006;-48
2024/04/13 05:22:39;;;;;;;0.20;0.20;;;;;;;11.80;100.00;102462.69;5525301;26;19997;-49
2024/04/13 05:25:05;;;;;;;0.20;0.20;;;;;;;11.81;100.00;102455.81;5524562;26;20429;-50
2024/04/13 05:27:31;;;;;;;0.20;0.20;;;;;;;11.84;100.00;102462.03;5525464;26;19993;-50
2024/04/13 05:30:02;;;;;;;0.20;0.20;;;;;;;11.86;100.00;102459.50;5523474;26;20001;-51
2024/04/13 05:32:27;;;;;;;0.20;0.20;;;;;;;11.88;100.00;102451.81;5525090;26;20087;-49
2024/04/13 05:34:53;;;;;;;0.20;0.20;;;;;;;11.90;100.00;102451.09;5525322;26;20005;-49
2024/04/13 05:37:18;;;;;;;0.20;0.20;;;;;;;11.92;100.00;102451.19;5524336;26;19997;-50
2024/04/13 05:39:43;;;;;;;0.20;0.20;;;;;;;11.96;100.00;102453.16;5524911;26;20332;-48
2024/04/13 05:42:08;;;;;;;0.20;0.20;;;;;;;11.97;100.00;102447.19;5525290;26;20070;-47
2024/04/13 05:44:34;;;;;;;0.20;0.20;;;;;;;11.99;100.00;102450.72;5523852;26;20325;-51
2024/04/13 05:46:59;;;;;;;0.20;0.20;;;;;;;12.01;100.00;102444.81;5525401;26;20069;-50
2024/04/13 05:49:24;;;;;;;0.20;0.20;;;;;;;12.05;100.00;102456.19;5524431;26;20486;-51
2024/04/13 05:51:50;;;;;;;0.20;0.20;;;;;;;12.12;100.00;102453.09;5524270;26;20009;-49
2024/04/13 05:54:15;;;;;;;0.20;0.20;;;;;;;12.17;100.00;102458.47;5525223;26;19997;-47
2024/04/13 05:56:40;;;;;;;0.20;0.20;;;;;;;12.22;100.00;102456.13;5524482;26;20011;-48
2024/04/13 05:59:06;;;;;;;0.20;0.20;;;;;;;12.28;100.00;102448.69;5524232;26;20410;-48
2024/04/13 06:01:32;;;;;;;0.20;0.20;;;;;;;12.32;100.00;102446.28;5524467;26;20466;-48
2024/04/13 06:03:57;;;;;;;0.20;0.20;;;;;;;12.41;100.00;102444.94;5524805;26;20070;-49
2024/04/13 06:06:23;;;;;;;0.20;0.20;;;;;;;12.46;100.00;102444.38;5523489;26;20440;-51
2024/04/13 06:08:48;;;;;;;0.20;0.20;;;;;;;12.51;100.00;102450.66;5524906;26;20005;-50
2024/04/13 06:11:13;;;;;;;0.20;0.20;;;;;;;12.58;100.00;102453.53;5524599;26;20004;-51
2024/04/13 06:13:39;;;;;;;0.20;0.20;;;;;;;12.63;100.00;102458.09;5523496;26;20016;-51
2024/04/13 06:16:04;;;;;;;0.20;0.20;;;;;;;12.70;100.00;102451.50;5524539;26;20009;-50
2024/04/13 06:18:30;;;;;;;0.20;0.20;;;;;;;12.76;100.00;102451.78;5524147;26;20006;-49
2024/04/13 06:20:55;;;;;;;0.20;0.20;;;;;;;12.83;100.00;102450.38;5523882;26;20008;-48
2024/04/13 06:23:20;;;;;;;0.10;0.10;;;;;;;12.90;100.00;102446.34;5523973;26;20397;-48
2024/04/13 06:25:47;;;;;;;0.20;0.20;;;;;;;12.97;100.00;102451.00;5524349;26;20008;-49
2024/04/13 06:28:12;;;;;;;0.20;0.20;;;;;;;13.07;100.00;102448.03;5523508;26;20012;-51
2024/04/13 06:30:39;;;;;;;0.20;0.20;;;;;;;13.16;100.00;102455.31;5524297;26;19997;-50
2024/04/13 06:33:04;;;;;;;0.20;0.20;;;;;;;13.23;100.00;102449.59;5523911;26;20301;-51
2024/04/13 06:35:29;;;;;;;0.20;0.20;;;;;;;13.35;100.00;102449.25;5522925;26;20001;-51
2024/04/13 06:37:55;;;;;;;0.20;0.20;;;;;;;13.43;100.00;102447.91;5523795;26;20065;-51
2024/04/13 06:40:22;;;;;;;0.20;0.20;;;;;;;13.54;100.00;102452.69;5524107;26;20332;-47
2024/04/13 06:42:47;;;;;;;;;;;;;;;13.70;100.00;102454.22;5528822;26;20004;-49
2024/04/13 06:45:13;;;;;;;0.20;0.20;;;;;;;13.68;100.00;102446.38;5527567;26;19931;-50
2024/04/13 06:47:38;;;;;;;0.20;0.20;;;;;;;13.75;100.00;102443.22;5526346;26;20749;-47
2024/04/13 06:50:04;;;;;;;0.20;0.20;;;;;;;13.83;100.00;102447.03;5527382;26;19997;-48
2024/04/13 06:52:29;;;;;;;0.13;0.13;;;;;;;13.89;100.00;102445.50;5527214;26;20004;-47
2024/04/13 06:54:54;;;;;;;0.10;0.10;;;;;;;13.96;100.00;102437.19;5526790;26;20004;-51
2024/04/13 06:57:19;;;;;;;0.10;0.10;;;;;;;14.07;100.00;102445.38;5527740;26;20322;-50
2024/04/13 06:59:45;;;;;;;0.10;0.10;;;;;;;14.15;100.00;102436.19;5527405;26;19989;-46
2024/04/13 07:02:10;;;;;;;0.17;0.17;;;;;;;14.17;100.00;102421.59;5526607;26;19989;-49
2024/04/13 07:04:35;;;;;;;0.10;0.10;;;;;;;14.24;100.00;102422.72;5526700;26;20017;-49
2024/04/13 07:07:01;;;;;;;0.10;0.10;;;;;;;14.29;100.00;102421.19;5527724;26;20016;-51
2024/04/13 07:09:26;;;;;;;0.20;0.20;;;;;;;14.34;100.00;102424.84;5526721;26;20001;-49
2024/04/13 07:11:51;;;;;;;0.17;0.17;;;;;;;14.43;100.00;102425.22;5527490;26;20012;-49
2024/04/13 07:14:16;;;;;;;0.10;0.10;;;;;;;14.55;100.00;102424.81;5527197;26;20008;-50
2024/04/13 07:16:42;;;;;;;0.10;0.10;;;;;;;14.66;100.00;102430.44;5526192;26;20005;-48
2024/04/13 07:19:07;;;;;;;0.13;0.13;;;;;;;14.78;100.00;102430.91;5527273;26;20017;-47
2024/04/13 07:21:32;;;;;;;0.10;0.10;;;;;;;14.87;100.00;102430.34;5526785;26;19993;-50
2024/04/13 07:23:59;;;;;;;0.13;0.13;;;;;;;15.04;100.00;102430.09;5526564;26;19989;-49
2024/04/13 07:26:25;;;;;;;0.15;0.15;;;;;;;15.14;100.00;102422.72;5526902;26;20005;-49
2024/04/13 07:28:50;;;;;;;0.10;0.10;;;;;;;15.26;100.00;102422.28;5527221;26;19993;-50
2024/04/13 07:31:15;;;;;;;0.10;0.10;;;;;;;15.40;100.00;102422.75;5526512;26;20329;-47
2024/04/13 07:33:40;;;;;;;0.20;0.20;;;;;;;15.50;100.00;102417.88;5526391;26;19993;-50
2024/04/13 07:36:06;;;;;;;0.10;0.10;;;;;;;15.61;100.00;102409.63;5527328;26;20385;-49
2024/04/13 07:38:33;;;;;;;0.10;0.10;;;;;;;15.70;100.00;102397.75;5525261;26;19989;-47
2024/04/13 07:40:58;;;;;;;0.10;0.10;;;;;;;15.73;100.00;102409.13;5526946;26;20425;-46
2024/04/13 07:43:23;;;;;;;0.10;0.10;;;;;;;15.71;100.00;102403.03;5526583;26;19997;-46
2024/04/13 07:45:51;;;;;;;0.10;0.10;;;;;;;15.72;100.00;102407.34;5526206;26;19989;-48
2024/04/13 07:48:17;;;;;;;0.10;0.10;;;;;;;15.78;100.00;102402.38;5526807;26;20039;-47
2024/04/13 07:50:42;;;;;;;0.10;0.10;;;;;;;15.85;100.00;102413.00;5525804;26;19993;-48
2024/04/13 07:53:08;;;;;;;0.15;0.15;;;;;;;15.94;100.00;102395.09;5525953;26;20021;-47
2024/04/13 07:55:33;;;;;;;0.10;0.10;;;;;;;15.95;100.00;102395.16;5526446;26;19997;-48
2024/04/13 07:57:58;;;;;;;0.10;0.10;;;;;;;16.04;100.00;102397.16;5526211;26;20069;-49
2024/04/13 08:00:24;;;;;;;0.17;0.17;;;;;;;16.12;100.00;102398.28;5526516;26;19993;-48
2024/04/13 08:02:49;;;;;;;0.10;0.10;;;;;;;16.24;100.00;102390.00;5526593;26;20441;-46
2024/04/13 08:05:15;;;;;;;0.10;0.10;;;;;;;16.38;100.00;102389.53;5525980;26;20065;-46
2024/04/13 08:07:40;;;;;;;0.10;0.10;;;;;;;16.53;100.00;102394.31;5526354;26;20063;-47
2024/04/13 08:10:07;;;;;;;0.10;0.10;;;;;;;16.67;100.00;102403.41;5526579;26;20001;-48
2024/04/13 08:12:32;;;;;;;0.10;0.10;;;;;;;16.70;100.00;102403.50;5523987;26;19997;-50
2024/04/13 08:14:57;;;;;;;0.10;0.10;;;;;;;16.90;100.00;102390.16;5524827;26;20451;-50
2024/04/13 08:17:26;;;;;;;0.10;0.10;;;;;;;16.97;100.00;102378.25;5524716;26;19997;-47
2024/04/13 08:19:51;;;;;;;0.10;0.10;;;;;;;17.01;100.00;102380.09;5524687;26;20012;-48
2024/04/13 08:22:17;;;;;;;0.10;0.10;;;;;;;17.14;100.00;102379.56;5526004;26;20421;-51
2024/04/13 08:24:44;;;;;;;0.10;0.10;;;;;;;17.18;100.00;102385.75;5525496;26;20004;-50
2024/04/13 08:27:10;;;;;;;0.13;0.13;;;;;;;17.24;100.00;102385.91;5525312;26;20461;-47
2024/04/13 08:29:35;;;;;;;0.10;0.10;;;;;;;17.31;100.00;102387.81;5525973;26;19994;-50
2024/04/13 08:32:00;;;;;;;0.10;0.10;;;;;;;17.38;100.00;102383.69;5526420;26;20005;-48
2024/04/13 08:34:26;;;;;;;0.10;0.10;;;;;;;17.56;100.00;102375.47;5525326;26;20001;-50
2024/04/13 08:36:52;;;;;;;0.10;0.10;;;;;;;17.74;100.00;102383.72;5526413;26;19993;-49
2024/04/13 08:39:18;;;;;;;0.10;0.10;;;;;;;17.84;100.00;102379.59;5526391;26;20086;-47
2024/04/13 08:42:03;;;;;;;0.10;0.10;;;;;;;17.80;100.00;102376.91;5525198;26;20330;-49
2024/04/13 08:44:30;;;;;;;0.10;0.10;;;;;;;17.83;100.00;102377.84;5525887;26;20003;-49
2024/04/13 08:46:57;;;;;;;0.10;0.10;;;;;;;17.94;100.00;102372.91;5525389;26;19993;-50
2024/04/13 08:49:22;;;;;;;0.10;0.10;;;;;;;17.99;100.00;102363.47;5526042;26;20066;-51
2024/04/13 08:51:49;;;;;;;0.10;0.10;;;;;;;18.08;100.00;102363.66;5526058;26;20009;-50
2024/04/13 08:54:16;;;;;;;0.00;0.00;;;;;;;18.12;100.00;102353.31;5524954;26;19997;-49
2024/04/13 08:56:44;;;;;;;0.10;0.10;;;;;;;18.22;100.00;102361.38;5526005;26;20013;-49
2024/04/13 08:59:10;;;;;;;0.10;0.10;;;;;;;18.32;100.00;102361.56;5525971;26;20023;-47
2024/04/13 09:01:37;;;;;;;0.10;0.10;;;;;;;18.36;100.00;102361.69;5525110;26;20033;-48
2024/04/13 09:04:03;;;;;;;0.10;0.10;;;;;;;18.48;100.00;102354.97;5523908;26;20010;-48
2024/04/13 09:06:28;;;;;;;0.10;0.10;;;;;;;18.55;100.00;102354.22;5525635;26;20226;-49
2024/04/13 09:08:55;;;;;;;0.10;0.10;;;;;;;18.80;100.00;102349.50;5524683;26;20022;-50
2024/04/13 09:11:22;;;;;;;0.07;0.07;;;;;;;18.93;100.00;102346.31;5525533;26;19998;-47
2024/04/13 09:13:49;;;;;;;0.10;0.10;;;;;;;19.02;100.00;102336.03;5525517;26;19993;-47
2024/04/13 09:16:15;;;;;;;;;;;;;;;19.25;100.00;102340.81;5525524;26;20001;-50
2024/04/13 09:18:40;;;;;;;0.10;0.10;;;;;;;19.18;100.00;102336.31;5525183;26;19930;-51
2024/04/13 09:21:07;;;;;;;0.10;0.10;;;;;;;19.22;100.00;102333.78;5525274;26;20021;-50
2024/04/13 09:23:33;;;;;;;0.10;0.10;;;;;;;19.42;100.00;102334.13;5524484;26;19989;-50
2024/04/13 09:26:06;;;;;;;0.00;0.00;;;;;;;19.60;100.00;102327.44;5525572;26;20000;-47
2024/04/13 09:28:39;;;;;;;0.10;0.10;;;;;;;19.73;100.00;102324.13;5525132;26;19993;-48
2024/04/13 09:31:05;;;;;;;0.10;0.10;;;;;;;19.78;100.00;102329.44;5524356;26;20001;-51
2024/04/13 09:33:31;;;;;;;0.10;0.10;;;;;;;19.75;99.34;102318.91;5525610;26;20196;-49
2024/04/13 09:35:59;;;;;;;0.10;0.10;;;;;;;19.78;99.52;102324.22;5525076;26;20001;-50
2024/04/13 09:38:25;;;;;;;0.00;0.00;;;;;;;19.82;97.93;102315.59;5525023;26;20011;-49
2024/04/13 09:40:59;;;;;;;0.00;0.00;;;;;;;19.95;100.00;102311.41;5525647;26;20321;-47
2024/04/13 09:43:25;;;;;;;0.10;0.10;;;;;;;20.00;94.85;102308.84;5524045;26;20477;-46
2024/04/13 09:45:57;;;;;;;0.00;0.00;;;;;;;20.22;93.67;102302.19;5525274;26;19997;-47
2024/04/13 09:48:22;;;;;;;0.10;0.10;;;;;;;20.34;93.64;102304.94;5524762;26;20344;-49
2024/04/13 09:50:48;;;;;;;0.00;0.00;;;;;;;20.72;92.48;102301.91;5524342;26;20501;-50
2024/04/13 09:53:13;;;;;;;0.00;0.00;;;;;;;20.71;89.51;102299.28;5524715;26;20004;-46
2024/04/13 09:55:39;;;;;;;0.00;0.00;;;;;;;21.07;89.44;102290.03;5524987;26;19993;-49
2024/04/13 09:58:06;;;;;;;0.10;0.10;;;;;;;21.23;83.60;102293.66;5523931;26;19993;-47
2024/04/13 10:00:33;;;;;;;0.10;0.10;;;;;;;21.45;79.02;102286.81;5524749;26;20004;-48
2024/04/13 10:02:58;;;;;;;0.10;0.10;;;;;;;21.52;75.91;102274.63;5524746;26;20029;-50
2024/04/13 10:05:27;;;;;;;0.05;0.05;;;;;;;21.71;75.35;102283.53;5523669;26;19998;-51
2024/04/13 10:07:54;;;;;;;0.00;0.00;;;;;;;22.18;73.52;102279.38;5524823;26;20066;-49
2024/04/13 10:10:21;;;;;;;0.00;0.00;;;;;;;22.58;70.99;102286.56;5524617;26;19997;-48
2024/04/13 10:12:47;;;;;;;;;;;;;;;23.01;75.08;102284.88;5524447;26;20035;-51
2024/04/13 10:15:15;;;;;;;0.00;0.00;;;;;;;22.98;65.50;102287.50;5525598;26;19923;-50
2024/04/13 10:17:42;;;;;;;;;;;;;;;23.45;71.19;102279.63;5528476;26;20001;-49
2024/04/13 10:20:08;;;;;;;0.00;0.00;;;;;;;23.58;60.76;102268.19;5527179;26;20382;-49
2024/04/13 10:22:33;;;;;;;0.00;0.00;;;;;;;23.44;58.31;102265.59;5527977;26;19993;-48
2024/04/13 10:25:08;;;;;;;0.00;0.00;;;;;;;23.63;59.82;102266.44;5528069;26;19993;-50
2024/04/13 10:27:34;;;;;;;0.00;0.00;;;;;;;23.67;56.98;102264.66;5527371;26;20008;-48
2024/04/13 10:30:00;;;;;;;0.00;0.00;;;;;;;23.78;57.48;102262.00;5528404;26;19997;-47
2024/04/13 10:32:26;;;;;;;0.00;0.00;;;;;;;24.03;55.69;102256.66;5526605;26;20218;-51
2024/04/13 10:34:51;;;;;;;0.00;0.00;;;;;;;24.05;55.08;102254.91;5528026;26;20016;-48
2024/04/13 10:37:32;;;;;;;0.00;0.00;;;;;;;24.21;54.56;102248.69;5528167;26;19997;-49
2024/04/13 10:40:00;;;;;;;0.00;0.00;;;;;;;24.36;50.89;102252.13;5527463;26;19994;-48
2024/04/13 10:42:42;;;;;;;0.00;0.00;;;;;;;24.52;49.87;102240.63;5527617;26;20361;-48
2024/04/13 10:45:15;;;;;;;0.00;0.00;;;;;;;24.27;48.21;102240.78;5528034;26;19993;-47
2024/04/13 10:47:41;;;;;;;0.00;0.00;;;;;;;24.46;48.43;102230.09;5527047;26;20442;-50
2024/04/13 10:50:10;;;;;;;0.00;0.00;;;;;;;24.71;48.26;102232.59;5527934;26;20333;-50
2024/04/13 10:52:35;;;;;;;0.00;0.00;;;;;;;24.65;47.29;102223.84;5527505;26;20001;-48
2024/04/13 10:55:00;;;;;;;0.00;0.00;;;;;;;25.07;47.67;102220.00;5527227;26;20008;-48
2024/04/13 10:57:26;;;;;;;0.00;0.00;;;;;;;24.70;45.29;102217.66;5527138;26;19993;-51
2024/04/13 10:59:51;;;;;;;0.00;0.00;;;;;;;24.32;45.00;102217.00;5527874;26;20005;-46
2024/04/13 11:02:17;;;;;;;0.00;0.00;;;;;;;23.98;46.79;102219.84;5526911;26;19997;-51
2024/04/13 11:04:43;;;;;;;0.00;0.00;;;;;;;23.89;48.21;102212.81;5527067;26;20004;-49
2024/04/13 11:07:12;;;;;;;0.00;0.00;;;;;;;23.90;46.79;102213.69;5527479;26;20005;-46
2024/04/13 11:09:37;;;;;;;0.00;0.00;;;;;;;23.78;46.63;102211.97;5526760;26;19997;-49
2024/04/13 11:12:13;;;;;;;0.00;0.00;;;;;;;23.79;46.54;102219.00;5527673;26;20001;-48
2024/04/13 11:14:38;;;;;;;0.00;0.00;;;;;;;24.25;46.82;102208.28;5526775;26;20005;-48